createdAt,value
2023-03-13T00:01:24.218Z,76.25
2023-03-13T00:03:51.895Z,77.71
2023-03-13T00:06:19.646Z,76.71
2023-03-13T00:08:47.830Z,75.97
2023-03-13T00:11:17.486Z,75.81
2023-03-13T00:13:45.273Z,77.97
2023-03-13T00:16:15.253Z,77.45
2023-03-13T00:18:48.164Z,77.67
2023-03-13T00:21:15.886Z,76.80
2023-03-13T00:23:42.883Z,78.34
2023-03-13T00:26:13.474Z,78.04
2023-03-13T00:28:42.050Z,77.75
2023-03-13T00:31:18.109Z,77.39
2023-03-13T00:33:47.734Z,77.69
2023-03-13T00:36:19.288Z,81.28
2023-03-13T00:38:47.131Z,81.42
2023-03-13T00:41:16.791Z,80.09
2023-03-13T00:43:45.261Z,79.22
2023-03-13T00:46:15.093Z,77.70
2023-03-13T00:48:42.396Z,78.75
2023-03-13T00:51:10.226Z,79.05
2023-03-13T00:53:37.642Z,79.59
2023-03-13T00:56:07.836Z,79.88
2023-03-13T00:58:43.735Z,80.78
2023-03-13T01:01:24.170Z,81.98
2023-03-13T01:03:58.747Z,82.22
2023-03-13T01:06:32.834Z,82.42
2023-03-13T01:09:06.077Z,83.87
2023-03-13T01:11:40.183Z,83.92
2023-03-13T01:14:11.000Z,83.63
2023-03-13T01:16:38.799Z,84.52
2023-03-13T01:19:10.582Z,83.48
2023-03-13T01:21:39.673Z,83.13
2023-03-13T01:24:06.987Z,83.94
2023-03-13T01:26:34.305Z,83.11
2023-03-13T01:29:02.028Z,83.00
2023-03-13T01:31:34.498Z,82.07
2023-03-13T01:34:04.149Z,82.13
2023-03-13T01:36:31.279Z,81.85
2023-03-13T01:39:00.998Z,83.08
2023-03-13T01:41:30.251Z,83.03
2023-03-13T01:43:58.258Z,83.98
2023-03-13T01:46:34.895Z,83.58
2023-03-13T01:49:16.630Z,81.89
2023-03-13T01:52:09.088Z,82.10
2023-03-13T01:54:42.534Z,82.51
2023-03-13T01:57:29.869Z,81.40
2023-03-13T02:00:09.101Z,82.29
2023-03-13T02:02:40.301Z,81.64
2023-03-13T02:05:07.886Z,80.63
2023-03-13T02:07:40.763Z,81.77
2023-03-13T02:10:11.167Z,81.98
2023-03-13T02:12:40.087Z,81.00
2023-03-13T02:15:15.339Z,80.03
2023-03-13T02:17:43.408Z,80.52
2023-03-13T02:20:11.576Z,81.06
2023-03-13T02:22:47.835Z,82.00
2023-03-13T02:25:24.094Z,83.15
2023-03-13T02:28:05.628Z,84.50
2023-03-13T02:30:34.098Z,84.60
2023-03-13T02:33:03.188Z,84.31
2023-03-13T02:35:34.385Z,84.64
2023-03-13T02:38:05.539Z,86.11
2023-03-13T02:40:40.737Z,86.13
2023-03-13T02:43:32.955Z,85.11
2023-03-13T02:46:16.249Z,86.12
2023-03-13T02:48:46.055Z,86.20
2023-03-13T02:51:17.665Z,86.19
2023-03-13T02:53:46.488Z,85.88
2023-03-13T02:56:15.770Z,85.43
2023-03-13T02:58:49.730Z,84.10
2023-03-13T03:01:17.686Z,82.67
2023-03-13T03:03:45.155Z,84.52
2023-03-13T03:06:12.122Z,82.94
2023-03-13T03:08:41.640Z,82.91
2023-03-13T03:11:09.062Z,82.56
2023-03-13T03:13:35.947Z,82.33
2023-03-13T03:16:15.755Z,81.67
2023-03-13T03:18:42.707Z,82.11
2023-03-13T03:21:12.586Z,84.61
2023-03-13T03:23:42.874Z,83.64
2023-03-13T03:26:10.316Z,84.28
2023-03-13T03:28:37.357Z,85.75
2023-03-13T03:31:09.973Z,86.91
2023-03-13T03:33:37.700Z,86.82
2023-03-13T03:36:08.085Z,87.38
2023-03-13T03:38:36.431Z,86.88
2023-03-13T03:41:03.530Z,87.27
2023-03-13T03:43:30.383Z,88.46
2023-03-13T03:45:57.496Z,87.98
2023-03-13T03:48:24.538Z,89.04
2023-03-13T03:50:53.379Z,89.05
2023-03-13T03:53:23.181Z,89.35
2023-03-13T03:55:53.212Z,90.15
2023-03-13T03:58:20.158Z,89.89
2023-03-13T04:00:48.551Z,89.04
2023-03-13T04:03:17.117Z,89.08
2023-03-13T04:05:44.617Z,88.47
2023-03-13T04:08:11.848Z,89.86
2023-03-13T04:10:38.900Z,88.94
2023-03-13T04:13:06.285Z,88.77
2023-03-13T04:15:33.310Z,89.05
2023-03-13T04:18:00.326Z,88.62
2023-03-13T04:20:29.173Z,88.41
2023-03-13T04:22:56.506Z,89.12
2023-03-13T04:25:23.998Z,89.09
2023-03-13T04:27:51.329Z,89.13
2023-03-13T04:30:18.920Z,88.77
2023-03-13T04:32:49.200Z,88.91
2023-03-13T04:35:16.524Z,88.66
2023-03-13T04:37:43.758Z,88.88
2023-03-13T04:40:12.995Z,88.46
2023-03-13T04:42:43.980Z,89.73
2023-03-13T04:45:13.187Z,89.19
2023-03-13T04:47:40.297Z,89.18
2023-03-13T04:50:07.499Z,90.64
2023-03-13T04:52:34.568Z,90.73
2023-03-13T04:55:01.497Z,90.33
2023-03-13T04:57:28.573Z,89.26
2023-03-13T04:59:55.685Z,89.40
2023-03-13T05:02:26.851Z,90.59
2023-03-13T05:04:53.648Z,91.15
2023-03-13T05:07:20.680Z,90.17
2023-03-13T05:09:47.672Z,89.62
2023-03-13T05:12:14.552Z,91.21
2023-03-13T05:14:41.334Z,90.58
2023-03-13T05:17:08.049Z,90.36
2023-03-13T05:19:34.981Z,89.73
2023-03-13T05:22:01.999Z,88.99
2023-03-13T05:24:28.887Z,87.54
2023-03-13T05:26:55.632Z,89.10
2023-03-13T05:29:22.609Z,90.50
2023-03-13T05:31:49.405Z,90.95
2023-03-13T05:34:16.285Z,89.81
2023-03-13T05:36:43.146Z,85.86
2023-03-13T05:39:10.075Z,81.75
2023-03-13T05:41:36.991Z,78.59
2023-03-13T05:44:03.777Z,76.75
2023-03-13T05:46:31.164Z,76.37
2023-03-13T05:48:57.986Z,77.20
2023-03-13T05:51:24.780Z,75.67
2023-03-13T05:53:51.551Z,71.07
2023-03-13T05:56:18.362Z,70.90
2023-03-13T05:58:46.250Z,69.42
2023-03-13T06:01:13.998Z,69.70
2023-03-13T06:03:40.892Z,67.36
2023-03-13T06:06:07.998Z,64.41
2023-03-13T06:08:34.842Z,59.86
2023-03-13T06:11:03.559Z,60.76
2023-03-13T06:13:30.460Z,57.56
2023-03-13T06:15:58.701Z,56.00
2023-03-13T06:18:26.241Z,58.26
2023-03-13T06:20:58.412Z,58.31
2023-03-13T06:23:25.360Z,55.92
2023-03-13T06:25:52.218Z,58.46
2023-03-13T06:28:18.975Z,60.19
2023-03-13T06:30:45.673Z,59.98
2023-03-13T06:33:12.585Z,61.94
2023-03-13T06:35:55.945Z,59.51
2023-03-13T06:38:26.886Z,59.46
2023-03-13T06:40:54.260Z,58.52
2023-03-13T06:43:21.471Z,57.30
2023-03-13T06:45:48.593Z,57.43
2023-03-13T06:48:18.690Z,56.71
2023-03-13T06:50:45.395Z,56.66
2023-03-13T06:53:17.639Z,57.16
2023-03-13T06:55:45.305Z,55.78
2023-03-13T06:58:29.039Z,55.04
2023-03-13T07:00:58.588Z,53.04
2023-03-13T07:03:25.540Z,53.77
2023-03-13T07:05:59.760Z,55.99
2023-03-13T07:08:26.925Z,55.65
2023-03-13T07:10:58.133Z,54.62
2023-03-13T07:13:25.826Z,54.94
2023-03-13T07:15:57.786Z,55.34
2023-03-13T07:18:24.627Z,52.03
2023-03-13T07:20:59.735Z,51.74
2023-03-13T07:23:28.987Z,51.22
2023-03-13T07:26:02.272Z,50.89
2023-03-13T07:28:36.321Z,51.84
2023-03-13T07:31:13.063Z,52.88
2023-03-13T07:33:40.725Z,50.51
2023-03-13T07:36:08.489Z,52.24
2023-03-13T07:38:35.632Z,51.86
2023-03-13T07:41:04.769Z,50.07
2023-03-13T07:43:49.416Z,50.67
2023-03-13T07:46:35.725Z,47.07
2023-03-13T07:49:06.696Z,48.04
2023-03-13T07:51:43.532Z,50.06
2023-03-13T07:54:12.103Z,50.14
2023-03-13T07:56:39.830Z,47.71
2023-03-13T07:59:07.174Z,47.28
2023-03-13T08:01:35.266Z,46.96
2023-03-13T08:04:05.925Z,46.58
2023-03-13T08:06:37.653Z,48.63
2023-03-13T08:09:05.709Z,46.63
2023-03-13T08:11:32.923Z,47.88
2023-03-13T08:14:04.631Z,45.79
2023-03-13T08:16:35.147Z,44.56
2023-03-13T08:19:07.152Z,45.56
2023-03-13T08:21:44.208Z,46.36
2023-03-13T08:24:13.330Z,47.17
2023-03-13T08:26:42.661Z,46.79
2023-03-13T08:29:12.789Z,46.75
2023-03-13T08:31:52.956Z,46.43
2023-03-13T08:34:20.561Z,45.69
2023-03-13T08:36:48.080Z,45.26
2023-03-13T08:39:20.273Z,43.72
2023-03-13T08:41:47.805Z,44.95
2023-03-13T08:44:17.641Z,46.61
2023-03-13T08:46:54.474Z,45.92
2023-03-13T08:49:21.489Z,45.07
2023-03-13T08:51:51.902Z,44.79
2023-03-13T08:54:22.256Z,44.05
2023-03-13T08:56:49.365Z,42.91
2023-03-13T08:59:16.722Z,45.07
2023-03-13T09:01:43.848Z,41.88
2023-03-13T09:04:10.660Z,41.52
2023-03-13T09:06:39.182Z,40.92
2023-03-13T09:09:07.607Z,41.78
2023-03-13T09:11:36.097Z,41.25
2023-03-13T09:14:03.178Z,41.41
2023-03-13T09:16:32.048Z,41.31
2023-03-13T09:19:03.016Z,42.62
2023-03-13T09:21:35.685Z,41.18
2023-03-13T09:26:42.706Z,41.47
2023-03-13T09:29:15.189Z,40.89
2023-03-13T09:31:42.434Z,40.82
2023-03-13T09:36:51.630Z,39.92
2023-03-13T09:39:18.835Z,39.78
2023-03-13T09:42:08.788Z,41.51
2023-03-13T09:44:55.581Z,39.08
2023-03-13T09:47:47.367Z,38.51
2023-03-13T09:50:33.214Z,39.06
2023-03-13T09:53:26.159Z,40.14
2023-03-13T09:55:54.179Z,39.00
2023-03-13T09:58:28.440Z,37.32
2023-03-13T10:00:58.581Z,38.78
2023-03-13T10:03:39.298Z,39.71
2023-03-13T10:06:27.042Z,38.20
2023-03-13T10:08:56.613Z,37.31
2023-03-13T10:11:55.072Z,37.40
2023-03-13T10:14:24.806Z,37.24
2023-03-13T10:17:10.329Z,38.29
2023-03-13T10:19:43.623Z,36.19
2023-03-13T10:22:19.383Z,37.17
2023-03-13T10:25:18.674Z,36.92
2023-03-13T10:27:53.893Z,37.98
2023-03-13T10:33:20.558Z,36.62
2023-03-13T10:36:04.901Z,37.25
2023-03-13T10:38:35.627Z,35.60
2023-03-13T10:41:10.805Z,37.10
2023-03-13T10:43:51.124Z,35.57
2023-03-13T10:46:31.848Z,35.17
2023-03-13T10:49:04.352Z,35.34
2023-03-13T10:51:39.936Z,35.53
2023-03-13T10:54:37.652Z,35.67
2023-03-13T10:57:19.634Z,35.36
2023-03-13T10:59:49.446Z,36.56
2023-03-13T11:02:27.376Z,33.98
2023-03-13T11:04:56.545Z,34.12
2023-03-13T11:07:33.764Z,35.37
2023-03-13T11:10:26.659Z,36.59
2023-03-13T11:12:55.993Z,37.49
2023-03-13T11:15:45.592Z,35.96
2023-03-13T11:18:21.792Z,36.56
2023-03-13T11:20:49.682Z,37.54
2023-03-13T11:23:23.068Z,35.98
2023-03-13T11:26:14.880Z,36.48
2023-03-13T11:28:59.574Z,36.20
2023-03-13T11:32:27.950Z,34.57
2023-03-13T11:35:04.937Z,36.67
2023-03-13T11:37:39.440Z,35.96
2023-03-13T11:40:12.498Z,35.13
2023-03-13T11:43:22.027Z,35.30
2023-03-13T11:46:22.381Z,34.85
2023-03-13T11:49:04.754Z,33.19
2023-03-13T11:51:53.287Z,35.01
2023-03-13T11:54:53.994Z,34.87
2023-03-13T11:57:42.170Z,33.45
2023-03-13T12:00:26.329Z,33.62
2023-03-13T12:03:15.856Z,32.89
2023-03-13T12:06:04.085Z,32.62
2023-03-13T12:08:49.416Z,34.56
2023-03-13T12:11:28.471Z,32.45
2023-03-13T12:14:03.396Z,32.97
2023-03-13T12:16:56.944Z,32.30
2023-03-13T12:19:53.086Z,32.95
2023-03-13T12:22:30.688Z,32.83
2023-03-13T12:25:06.185Z,32.77
2023-03-13T12:27:43.553Z,33.42
2023-03-13T12:30:33.797Z,33.97
2023-03-13T12:33:31.988Z,33.88
2023-03-13T12:36:26.770Z,33.88
2023-03-13T12:39:36.471Z,32.79
2023-03-13T12:42:29.352Z,33.17
2023-03-13T12:45:03.193Z,31.40
2023-03-13T12:47:36.712Z,32.39
2023-03-13T12:50:20.274Z,31.64
2023-03-13T12:52:56.204Z,32.02
2023-03-13T12:55:59.196Z,31.26
2023-03-13T12:58:53.518Z,31.36
2023-03-13T13:01:31.418Z,33.17
2023-03-13T13:04:18.091Z,32.66
2023-03-13T13:06:59.017Z,32.37
2023-03-13T13:09:36.504Z,32.79
2023-03-13T13:12:17.722Z,32.45
2023-03-13T13:14:51.596Z,32.04
2023-03-13T13:17:41.003Z,32.23
2023-03-13T13:20:45.333Z,32.24
2023-03-13T13:23:27.190Z,32.60
2023-03-13T13:26:00.686Z,33.53
2023-03-13T13:28:36.281Z,32.90
2023-03-13T13:31:42.247Z,34.04
2023-03-13T13:34:30.581Z,32.81
2023-03-13T13:36:59.918Z,32.91
2023-03-13T13:39:36.694Z,33.52
2023-03-13T13:42:42.380Z,34.10
2023-03-13T13:45:16.242Z,33.53
2023-03-13T13:47:47.738Z,33.39
2023-03-13T13:50:25.391Z,34.59
2023-03-13T13:52:52.657Z,34.20
2023-03-13T13:55:22.595Z,34.62
2023-03-13T13:57:51.036Z,34.94
2023-03-13T14:00:35.396Z,35.77
2023-03-13T14:03:02.890Z,34.96
2023-03-13T14:05:33.143Z,35.37
2023-03-13T14:08:20.742Z,35.33
2023-03-13T14:10:54.757Z,35.50
2023-03-13T14:13:26.147Z,34.89
2023-03-13T14:15:54.220Z,36.31
2023-03-13T14:18:23.343Z,34.16
2023-03-13T14:20:51.535Z,33.99
2023-03-13T14:23:29.473Z,34.14
2023-03-13T14:25:56.799Z,34.19
2023-03-13T14:28:29.309Z,33.67
2023-03-13T14:30:59.265Z,33.29
2023-03-13T14:33:27.958Z,34.14
2023-03-13T14:35:58.352Z,34.46
2023-03-13T14:38:27.726Z,34.77
2023-03-13T14:40:55.910Z,35.64
2023-03-13T14:43:43.034Z,35.59
2023-03-13T14:46:34.901Z,34.71
2023-03-13T14:49:16.803Z,35.78
2023-03-13T14:51:44.628Z,35.85
2023-03-13T14:54:55.684Z,35.00
2023-03-13T14:57:27.756Z,35.79
2023-03-13T14:59:57.370Z,34.57
2023-03-13T15:02:31.410Z,36.05
2023-03-13T15:05:05.456Z,35.20
2023-03-13T15:07:40.987Z,35.41
2023-03-13T15:10:21.076Z,35.19
2023-03-13T15:12:48.517Z,35.37
2023-03-13T15:15:16.190Z,35.10
2023-03-13T15:17:44.463Z,35.73
2023-03-13T15:20:15.027Z,35.45
2023-03-13T15:22:45.912Z,35.22
2023-03-13T15:25:22.272Z,35.84
2023-03-13T15:27:53.834Z,35.94
2023-03-13T15:30:23.856Z,36.23
2023-03-13T15:32:52.826Z,35.66
2023-03-13T15:35:31.457Z,36.00
2023-03-13T15:38:00.813Z,35.92
2023-03-13T15:40:28.889Z,35.84
2023-03-13T15:42:56.355Z,35.83
2023-03-13T15:47:57.333Z,35.86
2023-03-13T15:50:29.716Z,35.39
2023-03-13T15:53:03.272Z,34.92
2023-03-13T15:55:32.508Z,35.09
2023-03-13T15:57:59.437Z,35.04
2023-03-13T16:00:27.832Z,35.41
2023-03-13T16:02:56.164Z,35.33
2023-03-13T16:05:22.906Z,35.76
2023-03-13T16:07:49.851Z,50.96
2023-03-13T16:10:21.984Z,43.67
2023-03-13T16:12:50.305Z,37.27
2023-03-13T16:15:17.968Z,37.13
2023-03-13T16:17:45.962Z,38.70
2023-03-13T16:20:18.755Z,40.23
2023-03-13T16:22:45.777Z,40.28
2023-03-13T16:25:14.434Z,41.56
2023-03-13T16:27:42.317Z,41.73
2023-03-13T16:30:18.957Z,42.70
2023-03-13T16:32:46.525Z,43.29
2023-03-13T16:35:13.854Z,43.64
2023-03-13T16:37:40.843Z,43.73
2023-03-13T16:40:23.013Z,44.41
2023-03-13T16:42:49.803Z,45.34
2023-03-13T16:45:17.023Z,45.44
2023-03-13T16:47:45.692Z,45.39
2023-03-13T16:50:23.302Z,46.43
2023-03-13T16:52:51.955Z,46.55
2023-03-13T16:55:19.606Z,46.58
2023-03-13T16:57:46.607Z,47.59
2023-03-13T17:00:18.159Z,47.81
2023-03-13T17:02:45.273Z,47.77
2023-03-13T17:05:15.792Z,48.02
2023-03-13T17:07:48.234Z,48.23
2023-03-13T17:10:28.778Z,48.21
2023-03-13T17:12:56.120Z,48.66
2023-03-13T17:15:23.875Z,47.91
2023-03-13T17:17:52.175Z,47.76
2023-03-13T17:20:26.174Z,48.69
2023-03-13T17:22:53.505Z,49.50
2023-03-13T17:25:20.220Z,49.39
2023-03-13T17:27:47.744Z,49.93
2023-03-13T17:30:21.847Z,49.41
2023-03-13T17:32:50.513Z,50.53
2023-03-13T17:35:18.645Z,51.00
2023-03-13T17:37:45.622Z,52.35
2023-03-13T17:40:16.932Z,52.15
2023-03-13T17:42:43.874Z,52.92
2023-03-13T17:45:11.418Z,52.71
2023-03-13T17:47:38.996Z,52.86
2023-03-13T17:50:27.359Z,52.34
2023-03-13T17:52:54.589Z,52.19
2023-03-13T17:55:22.149Z,53.74
2023-03-13T17:57:49.535Z,52.59
2023-03-13T18:00:22.093Z,52.15
2023-03-13T18:02:49.578Z,52.20
2023-03-13T18:05:16.423Z,52.13
2023-03-13T18:07:46.881Z,52.50
2023-03-13T18:10:26.213Z,52.60
2023-03-13T18:12:53.919Z,52.62
2023-03-13T18:15:22.006Z,52.02
2023-03-13T18:17:49.177Z,51.79
2023-03-13T18:20:18.409Z,51.86
2023-03-13T18:22:45.662Z,51.41
2023-03-13T18:25:13.589Z,52.48
2023-03-13T18:27:40.985Z,52.58
2023-03-13T18:30:23.390Z,53.89
2023-03-13T18:32:50.747Z,53.65
2023-03-13T18:35:18.244Z,52.85
2023-03-13T18:37:47.514Z,53.28
2023-03-13T18:40:19.261Z,53.54
2023-03-13T18:42:47.427Z,54.00
2023-03-13T18:45:31.715Z,54.90
2023-03-13T18:47:58.955Z,55.17
2023-03-13T18:50:29.149Z,55.01
2023-03-13T18:52:57.445Z,54.46
2023-03-13T18:55:26.879Z,54.28
2023-03-13T18:57:55.112Z,54.37
2023-03-13T19:00:27.818Z,54.97
2023-03-13T19:02:54.707Z,54.68
2023-03-13T19:05:24.996Z,55.57
2023-03-13T19:07:52.060Z,54.93
2023-03-13T19:10:20.741Z,55.15
2023-03-13T19:12:47.971Z,55.24
2023-03-13T19:15:15.167Z,56.04
2023-03-13T19:17:42.515Z,55.95
2023-03-13T19:20:21.485Z,56.46
2023-03-13T19:22:48.422Z,56.79
2023-03-13T19:25:18.619Z,56.52
2023-03-13T19:27:46.183Z,56.18
2023-03-13T19:30:21.852Z,55.58
2023-03-13T19:32:49.611Z,56.13
2023-03-13T19:35:18.956Z,56.14
2023-03-13T19:37:46.455Z,56.04
2023-03-13T19:40:20.049Z,56.17
2023-03-13T19:42:46.830Z,56.62
2023-03-13T19:45:16.825Z,56.38
2023-03-13T19:47:44.860Z,57.71
2023-03-13T19:50:28.533Z,58.33
2023-03-13T19:52:55.409Z,57.96
2023-03-13T19:55:22.327Z,57.23
2023-03-13T19:58:00.484Z,57.52
2023-03-13T20:00:28.147Z,57.29
2023-03-13T20:02:56.288Z,57.21
2023-03-13T20:05:24.135Z,58.24
2023-03-13T20:08:07.846Z,58.03
2023-03-13T20:10:53.957Z,59.16
2023-03-13T20:13:21.103Z,59.37
2023-03-13T20:15:50.994Z,59.61
2023-03-13T20:18:21.055Z,60.38
2023-03-13T20:20:49.035Z,60.50
2023-03-13T20:23:17.688Z,63.08
2023-03-13T20:25:44.854Z,60.80
2023-03-13T20:28:12.111Z,60.96
2023-03-13T20:30:42.812Z,61.74
2023-03-13T20:33:10.633Z,61.79
2023-03-13T20:35:42.489Z,62.03
2023-03-13T20:38:09.780Z,62.20
2023-03-13T20:40:36.951Z,62.10
2023-03-13T20:43:06.715Z,62.27
2023-03-13T20:45:34.898Z,62.20
2023-03-13T20:48:09.668Z,62.63
2023-03-13T20:50:36.867Z,63.31
2023-03-13T20:53:07.041Z,63.79
2023-03-13T20:55:37.130Z,64.78
2023-03-13T20:58:04.181Z,64.26
2023-03-13T21:00:34.449Z,63.25
2023-03-13T21:03:07.058Z,64.22
2023-03-13T21:05:37.794Z,64.50
2023-03-13T21:08:04.930Z,64.69
2023-03-13T21:10:32.569Z,65.10
2023-03-13T21:13:02.210Z,64.26
2023-03-13T21:16:09.279Z,63.75
2023-03-13T21:18:36.446Z,65.05
2023-03-13T21:21:10.126Z,65.90
2023-03-13T21:23:38.762Z,65.92
2023-03-13T21:26:05.797Z,66.96
2023-03-13T21:28:35.929Z,65.82
2023-03-13T21:31:11.836Z,67.14
2023-03-13T21:33:46.765Z,67.08
2023-03-13T21:36:15.772Z,66.76
2023-03-13T21:38:43.802Z,66.44
2023-03-13T21:41:13.205Z,66.45
2023-03-13T21:43:46.940Z,67.42
2023-03-13T21:49:01.801Z,67.12
2023-03-13T21:51:29.464Z,67.08
2023-03-13T21:54:02.791Z,67.94
2023-03-13T21:56:32.121Z,68.02
2023-03-13T21:59:00.837Z,66.83
2023-03-13T22:01:35.160Z,68.49
2023-03-13T22:04:05.652Z,68.99
2023-03-13T22:06:32.728Z,68.59
2023-03-13T22:09:00.558Z,70.19
2023-03-13T22:11:27.699Z,70.44
2023-03-13T22:13:55.101Z,71.73
2023-03-13T22:16:25.378Z,70.49
2023-03-13T22:18:53.038Z,69.29
2023-03-13T22:21:23.007Z,70.76
2023-03-13T22:23:52.921Z,71.41
2023-03-13T22:26:24.928Z,70.63
2023-03-13T22:28:54.657Z,71.44
2023-03-13T22:31:22.203Z,72.50
2023-03-13T22:33:52.084Z,71.73
2023-03-13T22:36:20.773Z,72.23
2023-03-13T22:38:50.884Z,72.94
2023-03-13T22:41:19.149Z,73.45
2023-03-13T22:43:46.944Z,73.16
2023-03-13T22:46:18.855Z,72.88
2023-03-13T22:48:45.939Z,72.93
2023-03-13T22:51:15.197Z,73.30
2023-03-13T22:53:44.666Z,74.64
2023-03-13T22:56:14.019Z,74.31
2023-03-13T22:58:42.485Z,74.86
2023-03-13T23:01:16.059Z,73.26
2023-03-13T23:03:43.798Z,73.94
2023-03-13T23:06:25.654Z,74.61
2023-03-13T23:08:53.251Z,73.93
2023-03-13T23:11:21.106Z,74.23
2023-03-13T23:13:48.659Z,74.14
2023-03-13T23:16:17.091Z,73.13
2023-03-13T23:18:43.918Z,73.48
2023-03-13T23:21:13.346Z,74.24
2023-03-13T23:23:40.443Z,73.72
2023-03-13T23:26:11.741Z,74.31
2023-03-13T23:28:40.108Z,73.10
2023-03-13T23:31:15.901Z,73.85
2023-03-13T23:33:43.385Z,74.43
2023-03-13T23:36:16.275Z,73.61
2023-03-13T23:38:43.397Z,73.19
2023-03-13T23:41:14.546Z,71.07
2023-03-13T23:43:41.756Z,69.02
2023-03-13T23:46:19.708Z,68.96
2023-03-13T23:48:46.950Z,67.57
2023-03-13T23:51:13.862Z,68.32
2023-03-13T23:53:42.773Z,70.67
2023-03-13T23:56:10.506Z,72.81
2023-03-13T23:58:37.303Z,73.14
